sensor_id;sensor_type;location;lat;lon;timestamp;temperature;humidity
1704;DHT22;849;48.780;9.216;2023-02-28T00:00:45;2.60;63.00
1704;DHT22;849;48.780;9.216;2023-02-28T00:03:20;2.50;63.00
1704;DHT22;849;48.780;9.216;2023-02-28T00:06:08;2.50;63.90
1704;DHT22;849;48.780;9.216;2023-02-28T00:08:43;2.70;63.30
1704;DHT22;849;48.780;9.216;2023-02-28T00:11:12;2.70;62.80
1704;DHT22;849;48.780;9.216;2023-02-28T00:13:44;2.70;63.20
1704;DHT22;849;48.780;9.216;2023-02-28T00:16:47;2.70;63.50
1704;DHT22;849;48.780;9.216;2023-02-28T00:19:22;2.70;63.40
1704;DHT22;849;48.780;9.216;2023-02-28T00:22:00;2.60;63.30
1704;DHT22;849;48.780;9.216;2023-02-28T00:24:45;2.50;63.40
1704;DHT22;849;48.780;9.216;2023-02-28T00:27:14;2.50;63.70
1704;DHT22;849;48.780;9.216;2023-02-28T00:29:52;2.60;64.20
1704;DHT22;849;48.780;9.216;2023-02-28T00:32:32;2.60;64.00
1704;DHT22;849;48.780;9.216;2023-02-28T00:35:11;2.80;64.40
1704;DHT22;849;48.780;9.216;2023-02-28T00:37:40;2.80;64.10
1704;DHT22;849;48.780;9.216;2023-02-28T00:40:31;2.70;63.80
1704;DHT22;849;48.780;9.216;2023-02-28T00:43:02;2.70;64.00
1704;DHT22;849;48.780;9.216;2023-02-28T00:45:38;2.70;64.30
1704;DHT22;849;48.780;9.216;2023-02-28T00:49:07;2.60;64.50
1704;DHT22;849;48.780;9.216;2023-02-28T00:51:05;2.50;64.80
1704;DHT22;849;48.780;9.216;2023-02-28T00:53:45;2.40;65.00
1704;DHT22;849;48.780;9.216;2023-02-28T00:56:11;2.40;65.10
1704;DHT22;849;48.780;9.216;2023-02-28T00:58:47;2.50;65.50
1704;DHT22;849;48.780;9.216;2023-02-28T01:01:21;2.60;65.80
1704;DHT22;849;48.780;9.216;2023-02-28T01:03:58;2.60;65.40
1704;DHT22;849;48.780;9.216;2023-02-28T01:06:29;2.70;65.60
1704;DHT22;849;48.780;9.216;2023-02-28T01:09:03;2.60;65.30
1704;DHT22;849;48.780;9.216;2023-02-28T01:11:41;2.50;65.80
1704;DHT22;849;48.780;9.216;2023-02-28T01:14:15;2.50;66.00
1704;DHT22;849;48.780;9.216;2023-02-28T01:16:55;2.40;66.00
1704;DHT22;849;48.780;9.216;2023-02-28T01:19:33;2.40;66.30
1704;DHT22;849;48.780;9.216;2023-02-28T01:22:11;2.50;66.70
1704;DHT22;849;48.780;9.216;2023-02-28T01:24:51;2.40;67.00
1704;DHT22;849;48.780;9.216;2023-02-28T01:27:21;2.50;67.40
1704;DHT22;849;48.780;9.216;2023-02-28T01:29:55;2.50;67.60
1704;DHT22;849;48.780;9.216;2023-02-28T01:32:30;2.60;67.30
1704;DHT22;849;48.780;9.216;2023-02-28T01:35:02;2.40;66.90
1704;DHT22;849;48.780;9.216;2023-02-28T01:37:40;2.40;67.70
1704;DHT22;849;48.780;9.216;2023-02-28T01:40:29;2.40;67.80
1704;DHT22;849;48.780;9.216;2023-02-28T01:45:48;2.50;68.50
1704;DHT22;849;48.780;9.216;2023-02-28T01:48:39;2.30;68.00
1704;DHT22;849;48.780;9.216;2023-02-28T01:51:26;2.40;68.60
1704;DHT22;849;48.780;9.216;2023-02-28T01:54:09;2.40;68.70
1704;DHT22;849;48.780;9.216;2023-02-28T01:56:55;2.40;69.30
1704;DHT22;849;48.780;9.216;2023-02-28T01:59:33;2.30;69.30
1704;DHT22;849;48.780;9.216;2023-02-28T02:02:05;2.40;69.70
1704;DHT22;849;48.780;9.216;2023-02-28T02:04:39;2.40;69.50
1704;DHT22;849;48.780;9.216;2023-02-28T02:07:11;2.40;70.00
1704;DHT22;849;48.780;9.216;2023-02-28T02:09:49;2.50;70.30
1704;DHT22;849;48.780;9.216;2023-02-28T02:32:49;2.20;72.00
1704;DHT22;849;48.780;9.216;2023-02-28T02:35:26;2.10;72.00
1704;DHT22;849;48.780;9.216;2023-02-28T02:38:29;2.10;72.60
1704;DHT22;849;48.780;9.216;2023-02-28T02:46:47;2.00;73.70
1704;DHT22;849;48.780;9.216;2023-02-28T02:49:23;2.00;73.90
1704;DHT22;849;48.780;9.216;2023-02-28T02:52:23;2.10;73.80
1704;DHT22;849;48.780;9.216;2023-02-28T02:55:03;2.20;73.70
1704;DHT22;849;48.780;9.216;2023-02-28T02:58:07;2.10;73.70
1704;DHT22;849;48.780;9.216;2023-02-28T03:00:44;2.20;73.70
1704;DHT22;849;48.780;9.216;2023-02-28T03:03:17;2.20;74.00
1704;DHT22;849;48.780;9.216;2023-02-28T03:05:58;2.00;74.90
1704;DHT22;849;48.780;9.216;2023-02-28T03:08:45;1.90;74.90
1704;DHT22;849;48.780;9.216;2023-02-28T03:11:30;2.00;75.00
1704;DHT22;849;48.780;9.216;2023-02-28T03:23:09;2.10;76.30
1704;DHT22;849;48.780;9.216;2023-02-28T03:25:52;2.10;76.70
1704;DHT22;849;48.780;9.216;2023-02-28T03:31:20;2.30;76.80
1704;DHT22;849;48.780;9.216;2023-02-28T03:34:10;2.30;76.40
1704;DHT22;849;48.780;9.216;2023-02-28T03:37:02;2.30;76.60
1704;DHT22;849;48.780;9.216;2023-02-28T03:39:56;2.30;76.80
1704;DHT22;849;48.780;9.216;2023-02-28T03:42:47;2.20;77.20
1704;DHT22;849;48.780;9.216;2023-02-28T03:45:24;2.20;77.40
1704;DHT22;849;48.780;9.216;2023-02-28T03:48:14;2.10;78.10
1704;DHT22;849;48.780;9.216;2023-02-28T03:50:53;2.20;78.40
1704;DHT22;849;48.780;9.216;2023-02-28T03:56:41;2.20;78.70
1704;DHT22;849;48.780;9.216;2023-02-28T03:59:42;2.30;79.00
1704;DHT22;849;48.780;9.216;2023-02-28T04:02:19;2.50;78.70
1704;DHT22;849;48.780;9.216;2023-02-28T04:04:52;2.40;78.40
1704;DHT22;849;48.780;9.216;2023-02-28T04:07:33;2.40;78.70
1704;DHT22;849;48.780;9.216;2023-02-28T04:10:01;2.40;78.70
1704;DHT22;849;48.780;9.216;2023-02-28T04:12:35;2.30;78.70
1704;DHT22;849;48.780;9.216;2023-02-28T04:15:10;2.30;79.20
1704;DHT22;849;48.780;9.216;2023-02-28T04:17:42;2.30;79.30
1704;DHT22;849;48.780;9.216;2023-02-28T04:20:29;2.30;79.50
1704;DHT22;849;48.780;9.216;2023-02-28T04:23:04;2.30;79.70
1704;DHT22;849;48.780;9.216;2023-02-28T04:25:54;2.30;79.50
1704;DHT22;849;48.780;9.216;2023-02-28T04:28:23;2.40;79.80
1704;DHT22;849;48.780;9.216;2023-02-28T04:30:58;2.40;79.40
1704;DHT22;849;48.780;9.216;2023-02-28T04:33:27;2.50;79.40
1704;DHT22;849;48.780;9.216;2023-02-28T04:36:07;2.40;79.10
1704;DHT22;849;48.780;9.216;2023-02-28T04:38:47;2.30;79.20
1704;DHT22;849;48.780;9.216;2023-02-28T04:41:25;2.10;79.60
1704;DHT22;849;48.780;9.216;2023-02-28T04:43:59;2.20;80.20
1704;DHT22;849;48.780;9.216;2023-02-28T04:46:54;2.20;80.10
1704;DHT22;849;48.780;9.216;2023-02-28T04:49:53;2.20;80.20
1704;DHT22;849;48.780;9.216;2023-02-28T04:52:25;2.30;80.70
1704;DHT22;849;48.780;9.216;2023-02-28T04:54:57;2.40;80.50
1704;DHT22;849;48.780;9.216;2023-02-28T04:57:23;2.40;80.60
1704;DHT22;849;48.780;9.216;2023-02-28T04:59:57;2.40;81.00
1704;DHT22;849;48.780;9.216;2023-02-28T05:02:30;2.50;81.20
1704;DHT22;849;48.780;9.216;2023-02-28T05:05:13;2.50;80.60
1704;DHT22;849;48.780;9.216;2023-02-28T05:07:52;2.40;80.80
1704;DHT22;849;48.780;9.216;2023-02-28T05:10:46;2.40;80.80
1704;DHT22;849;48.780;9.216;2023-02-28T05:13:29;2.40;81.40
1704;DHT22;849;48.780;9.216;2023-02-28T05:16:07;2.50;81.50
1704;DHT22;849;48.780;9.216;2023-02-28T05:18:37;2.30;81.40
1704;DHT22;849;48.780;9.216;2023-02-28T05:21:36;2.30;81.90
1704;DHT22;849;48.780;9.216;2023-02-28T05:24:06;2.30;82.50
1704;DHT22;849;48.780;9.216;2023-02-28T05:26:49;2.40;82.40
1704;DHT22;849;48.780;9.216;2023-02-28T05:29:31;2.40;82.40
1704;DHT22;849;48.780;9.216;2023-02-28T05:32:09;2.30;81.90
1704;DHT22;849;48.780;9.216;2023-02-28T05:34:41;2.30;82.00
1704;DHT22;849;48.780;9.216;2023-02-28T05:37:26;2.30;82.10
1704;DHT22;849;48.780;9.216;2023-02-28T05:39:57;2.30;82.80
1704;DHT22;849;48.780;9.216;2023-02-28T05:42:31;2.30;83.10
1704;DHT22;849;48.780;9.216;2023-02-28T05:45:06;2.20;83.00
1704;DHT22;849;48.780;9.216;2023-02-28T05:47:57;2.10;83.40
1704;DHT22;849;48.780;9.216;2023-02-28T05:50:23;2.10;83.60
1704;DHT22;849;48.780;9.216;2023-02-28T05:52:59;2.00;84.30
1704;DHT22;849;48.780;9.216;2023-02-28T05:55:36;2.10;85.10
1704;DHT22;849;48.780;9.216;2023-02-28T05:58:21;2.20;84.80
1704;DHT22;849;48.780;9.216;2023-02-28T06:00:58;2.20;84.80
1704;DHT22;849;48.780;9.216;2023-02-28T06:03:32;2.10;85.00
1704;DHT22;849;48.780;9.216;2023-02-28T06:06:10;2.20;85.50
1704;DHT22;849;48.780;9.216;2023-02-28T06:09:23;2.30;84.90
1704;DHT22;849;48.780;9.216;2023-02-28T06:11:53;2.30;84.60
1704;DHT22;849;48.780;9.216;2023-02-28T06:14:24;2.20;85.10
1704;DHT22;849;48.780;9.216;2023-02-28T06:17:02;2.30;85.60
1704;DHT22;849;48.780;9.216;2023-02-28T06:19:42;2.30;85.80
1704;DHT22;849;48.780;9.216;2023-02-28T06:22:18;2.30;85.60
1704;DHT22;849;48.780;9.216;2023-02-28T06:25:01;2.30;86.10
1704;DHT22;849;48.780;9.216;2023-02-28T06:27:36;2.30;86.10
1704;DHT22;849;48.780;9.216;2023-02-28T06:30:27;2.30;86.00
1704;DHT22;849;48.780;9.216;2023-02-28T06:33:08;2.20;86.70
1704;DHT22;849;48.780;9.216;2023-02-28T06:35:56;2.10;86.50
1704;DHT22;849;48.780;9.216;2023-02-28T06:38:52;2.20;86.70
1704;DHT22;849;48.780;9.216;2023-02-28T06:41:47;2.30;86.30
1704;DHT22;849;48.780;9.216;2023-02-28T06:44:22;2.30;86.20
1704;DHT22;849;48.780;9.216;2023-02-28T06:46:53;2.50;85.90
1704;DHT22;849;48.780;9.216;2023-02-28T06:49:37;2.40;86.40
1704;DHT22;849;48.780;9.216;2023-02-28T06:52:39;2.30;86.10
1704;DHT22;849;48.780;9.216;2023-02-28T06:55:24;2.40;86.00
1704;DHT22;849;48.780;9.216;2023-02-28T07:01:41;2.60;85.60
1704;DHT22;849;48.780;9.216;2023-02-28T07:11:07;2.50;84.40
1704;DHT22;849;48.780;9.216;2023-02-28T07:14:01;2.50;84.10
1704;DHT22;849;48.780;9.216;2023-02-28T07:17:08;2.30;83.40
1704;DHT22;849;48.780;9.216;2023-02-28T07:19:45;2.40;83.70
1704;DHT22;849;48.780;9.216;2023-02-28T07:22:27;2.40;83.60
1704;DHT22;849;48.780;9.216;2023-02-28T07:25:28;2.50;83.20
1704;DHT22;849;48.780;9.216;2023-02-28T07:28:17;2.50;82.80
1704;DHT22;849;48.780;9.216;2023-02-28T07:30:49;2.50;83.80
1704;DHT22;849;48.780;9.216;2023-02-28T07:33:40;2.50;82.40
1704;DHT22;849;48.780;9.216;2023-02-28T07:36:19;2.50;82.40
1704;DHT22;849;48.780;9.216;2023-02-28T07:38:54;2.60;82.80
1704;DHT22;849;48.780;9.216;2023-02-28T07:41:30;2.60;83.10
1704;DHT22;849;48.780;9.216;2023-02-28T07:44:15;2.60;82.50
1704;DHT22;849;48.780;9.216;2023-02-28T07:46:52;2.50;82.70
1704;DHT22;849;48.780;9.216;2023-02-28T07:49:40;2.50;82.10
1704;DHT22;849;48.780;9.216;2023-02-28T07:52:52;2.40;82.90
1704;DHT22;849;48.780;9.216;2023-02-28T07:55:46;2.50;83.10
1704;DHT22;849;48.780;9.216;2023-02-28T07:58:16;2.50;82.40
1704;DHT22;849;48.780;9.216;2023-02-28T08:00:45;2.50;82.70
1704;DHT22;849;48.780;9.216;2023-02-28T08:03:18;2.60;83.10
1704;DHT22;849;48.780;9.216;2023-02-28T08:05:45;2.70;82.20
1704;DHT22;849;48.780;9.216;2023-02-28T08:08:12;2.80;82.40
1704;DHT22;849;48.780;9.216;2023-02-28T08:10:41;2.80;81.10
1704;DHT22;849;48.780;9.216;2023-02-28T08:13:10;2.90;81.20
1704;DHT22;849;48.780;9.216;2023-02-28T08:15:37;2.90;81.00
1704;DHT22;849;48.780;9.216;2023-02-28T08:18:04;2.90;81.50
1704;DHT22;849;48.780;9.216;2023-02-28T08:20:33;3.00;81.60
1704;DHT22;849;48.780;9.216;2023-02-28T08:23:13;3.00;81.20
1704;DHT22;849;48.780;9.216;2023-02-28T08:25:52;3.00;80.90
1704;DHT22;849;48.780;9.216;2023-02-28T08:28:24;3.00;80.90
1704;DHT22;849;48.780;9.216;2023-02-28T08:30:50;2.90;81.30
1704;DHT22;849;48.780;9.216;2023-02-28T08:33:20;2.90;81.00
1704;DHT22;849;48.780;9.216;2023-02-28T08:38:39;2.80;80.60
1704;DHT22;849;48.780;9.216;2023-02-28T08:44:32;2.80;80.60
1704;DHT22;849;48.780;9.216;2023-02-28T08:46:59;2.90;81.40
1704;DHT22;849;48.780;9.216;2023-02-28T08:49:36;3.00;81.10
1704;DHT22;849;48.780;9.216;2023-02-28T08:52:10;3.10;80.90
1704;DHT22;849;48.780;9.216;2023-02-28T08:54:47;3.00;80.20
1704;DHT22;849;48.780;9.216;2023-02-28T08:57:25;2.90;80.10
1704;DHT22;849;48.780;9.216;2023-02-28T09:00:09;3.00;80.80
1704;DHT22;849;48.780;9.216;2023-02-28T09:03:01;3.00;81.50
1704;DHT22;849;48.780;9.216;2023-02-28T09:05:38;3.10;80.90
1704;DHT22;849;48.780;9.216;2023-02-28T09:08:24;3.20;81.10
1704;DHT22;849;48.780;9.216;2023-02-28T09:11:15;3.30;80.60
1704;DHT22;849;48.780;9.216;2023-02-28T09:14:13;3.30;80.30
1704;DHT22;849;48.780;9.216;2023-02-28T09:16:43;3.30;79.30
1704;DHT22;849;48.780;9.216;2023-02-28T09:19:16;3.30;80.00
1704;DHT22;849;48.780;9.216;2023-02-28T09:22:15;3.20;79.70
1704;DHT22;849;48.780;9.216;2023-02-28T09:24:59;3.30;80.50
1704;DHT22;849;48.780;9.216;2023-02-28T09:27:47;3.30;80.50
1704;DHT22;849;48.780;9.216;2023-02-28T09:33:48;3.40;80.20
1704;DHT22;849;48.780;9.216;2023-02-28T09:36:46;3.60;79.60
1704;DHT22;849;48.780;9.216;2023-02-28T09:39:28;3.70;78.00
1704;DHT22;849;48.780;9.216;2023-02-28T09:42:11;3.70;78.30
1704;DHT22;849;48.780;9.216;2023-02-28T09:44:55;3.70;78.30
1704;DHT22;849;48.780;9.216;2023-02-28T09:47:48;3.60;78.20
1704;DHT22;849;48.780;9.216;2023-02-28T09:53:32;3.70;78.30
1704;DHT22;849;48.780;9.216;2023-02-28T10:06:45;4.20;77.60
1704;DHT22;849;48.780;9.216;2023-02-28T10:09:36;4.20;76.10
1704;DHT22;849;48.780;9.216;2023-02-28T10:12:11;4.00;76.10
1704;DHT22;849;48.780;9.216;2023-02-28T10:14:49;4.10;76.00
1704;DHT22;849;48.780;9.216;2023-02-28T10:17:33;4.10;77.40
1704;DHT22;849;48.780;9.216;2023-02-28T10:20:24;4.10;76.60
1704;DHT22;849;48.780;9.216;2023-02-28T10:23:35;4.20;76.60
1704;DHT22;849;48.780;9.216;2023-02-28T10:26:34;4.20;76.10
1704;DHT22;849;48.780;9.216;2023-02-28T10:29:27;4.30;75.10
1704;DHT22;849;48.780;9.216;2023-02-28T10:32:06;4.20;75.10
1704;DHT22;849;48.780;9.216;2023-02-28T10:34:49;4.20;76.60
1704;DHT22;849;48.780;9.216;2023-02-28T10:37:55;4.30;76.00
1704;DHT22;849;48.780;9.216;2023-02-28T10:40:31;4.10;76.10
1704;DHT22;849;48.780;9.216;2023-02-28T10:43:04;4.40;75.60
1704;DHT22;849;48.780;9.216;2023-02-28T10:45:35;4.40;74.50
1704;DHT22;849;48.780;9.216;2023-02-28T10:50:51;4.60;73.90
1704;DHT22;849;48.780;9.216;2023-02-28T10:53:33;4.60;73.60
1704;DHT22;849;48.780;9.216;2023-02-28T10:59:22;4.70;73.30
1704;DHT22;849;48.780;9.216;2023-02-28T11:02:35;4.70;73.40
1704;DHT22;849;48.780;9.216;2023-02-28T11:08:15;4.70;73.60
1704;DHT22;849;48.780;9.216;2023-02-28T11:11:05;4.60;74.30
1704;DHT22;849;48.780;9.216;2023-02-28T11:13:45;4.60;73.70
1704;DHT22;849;48.780;9.216;2023-02-28T11:16:21;4.60;74.10
1704;DHT22;849;48.780;9.216;2023-02-28T11:19:24;4.60;74.00
1704;DHT22;849;48.780;9.216;2023-02-28T11:22:08;4.80;74.30
1704;DHT22;849;48.780;9.216;2023-02-28T11:24:49;4.80;73.70
1704;DHT22;849;48.780;9.216;2023-02-28T11:30:41;4.80;73.10
1704;DHT22;849;48.780;9.216;2023-02-28T11:36:45;4.80;72.60
1704;DHT22;849;48.780;9.216;2023-02-28T11:39:29;4.80;73.10
1704;DHT22;849;48.780;9.216;2023-02-28T11:42:31;4.80;72.30
1704;DHT22;849;48.780;9.216;2023-02-28T11:45:35;4.80;74.00
1704;DHT22;849;48.780;9.216;2023-02-28T11:51:35;5.00;72.20
1704;DHT22;849;48.780;9.216;2023-02-28T12:08:15;5.20;72.00
1704;DHT22;849;48.780;9.216;2023-02-28T12:14:24;5.20;71.20
1704;DHT22;849;48.780;9.216;2023-02-28T12:26:43;5.30;69.70
1704;DHT22;849;48.780;9.216;2023-02-28T12:33:03;5.20;70.40
1704;DHT22;849;48.780;9.216;2023-02-28T12:35:47;5.20;71.20
1704;DHT22;849;48.780;9.216;2023-02-28T12:38:29;5.30;70.70
1704;DHT22;849;48.780;9.216;2023-02-28T12:41:18;5.40;70.40
1704;DHT22;849;48.780;9.216;2023-02-28T12:44:02;5.50;70.00
1704;DHT22;849;48.780;9.216;2023-02-28T12:46:57;5.70;70.00
1704;DHT22;849;48.780;9.216;2023-02-28T12:49:44;5.50;70.40
1704;DHT22;849;48.780;9.216;2023-02-28T12:52:20;5.60;69.90
1704;DHT22;849;48.780;9.216;2023-02-28T13:10:47;6.20;68.20
1704;DHT22;849;48.780;9.216;2023-02-28T13:13:25;6.20;68.10
1704;DHT22;849;48.780;9.216;2023-02-28T13:16:15;6.30;67.90
1704;DHT22;849;48.780;9.216;2023-02-28T13:18:51;6.30;68.00
1704;DHT22;849;48.780;9.216;2023-02-28T13:21:30;6.20;68.10
1704;DHT22;849;48.780;9.216;2023-02-28T13:24:04;6.40;67.60
1704;DHT22;849;48.780;9.216;2023-02-28T13:39:00;6.30;65.70
1704;DHT22;849;48.780;9.216;2023-02-28T13:58:00;6.80;66.50
1704;DHT22;849;48.780;9.216;2023-02-28T14:03:19;7.10;64.90
1704;DHT22;849;48.780;9.216;2023-02-28T14:08:33;7.10;66.30
1704;DHT22;849;48.780;9.216;2023-02-28T14:11:08;7.20;64.60
1704;DHT22;849;48.780;9.216;2023-02-28T14:13:46;7.30;63.50
1704;DHT22;849;48.780;9.216;2023-02-28T14:16:20;7.10;63.80
1704;DHT22;849;48.780;9.216;2023-02-28T14:19:23;7.00;64.90
1704;DHT22;849;48.780;9.216;2023-02-28T14:27:29;7.40;62.30
1704;DHT22;849;48.780;9.216;2023-02-28T14:36:20;7.10;61.90
1704;DHT22;849;48.780;9.216;2023-02-28T14:41:34;7.30;62.70
1704;DHT22;849;48.780;9.216;2023-02-28T14:44:12;7.40;63.30
1704;DHT22;849;48.780;9.216;2023-02-28T14:46:40;7.30;61.70
1704;DHT22;849;48.780;9.216;2023-02-28T14:49:13;7.30;62.40
1704;DHT22;849;48.780;9.216;2023-02-28T14:51:40;7.50;62.50
1704;DHT22;849;48.780;9.216;2023-02-28T14:54:06;7.50;62.00
1704;DHT22;849;48.780;9.216;2023-02-28T14:56:38;7.40;62.60
1704;DHT22;849;48.780;9.216;2023-02-28T14:59:17;7.50;62.50
1704;DHT22;849;48.780;9.216;2023-02-28T15:01:46;7.60;61.40
1704;DHT22;849;48.780;9.216;2023-02-28T15:04:22;7.70;62.00
1704;DHT22;849;48.780;9.216;2023-02-28T15:07:09;7.60;61.50
1704;DHT22;849;48.780;9.216;2023-02-28T15:09:35;7.70;62.30
1704;DHT22;849;48.780;9.216;2023-02-28T15:12:00;7.60;61.50
1704;DHT22;849;48.780;9.216;2023-02-28T15:14:27;7.60;62.60
1704;DHT22;849;48.780;9.216;2023-02-28T15:16:59;7.70;61.90
1704;DHT22;849;48.780;9.216;2023-02-28T15:19:29;7.70;61.70
1704;DHT22;849;48.780;9.216;2023-02-28T15:22:12;7.70;61.40
1704;DHT22;849;48.780;9.216;2023-02-28T15:24:46;7.70;62.50
1704;DHT22;849;48.780;9.216;2023-02-28T15:27:21;7.70;62.10
1704;DHT22;849;48.780;9.216;2023-02-28T15:29:54;7.90;62.20
1704;DHT22;849;48.780;9.216;2023-02-28T15:32:32;7.90;61.90
1704;DHT22;849;48.780;9.216;2023-02-28T15:34:59;8.00;61.50
1704;DHT22;849;48.780;9.216;2023-02-28T15:40:44;8.10;61.10
1704;DHT22;849;48.780;9.216;2023-02-28T15:43:37;8.30;60.50
1704;DHT22;849;48.780;9.216;2023-02-28T15:46:09;8.30;60.60
1704;DHT22;849;48.780;9.216;2023-02-28T15:48:56;8.40;60.10
1704;DHT22;849;48.780;9.216;2023-02-28T15:51:31;8.50;59.80
1704;DHT22;849;48.780;9.216;2023-02-28T15:54:12;8.40;59.70
1704;DHT22;849;48.780;9.216;2023-02-28T15:56:46;8.20;59.80
1704;DHT22;849;48.780;9.216;2023-02-28T15:59:20;8.10;60.50
1704;DHT22;849;48.780;9.216;2023-02-28T16:01:46;8.10;60.40
1704;DHT22;849;48.780;9.216;2023-02-28T16:04:19;8.00;61.30
1704;DHT22;849;48.780;9.216;2023-02-28T16:07:05;8.00;60.50
1704;DHT22;849;48.780;9.216;2023-02-28T16:09:31;7.80;61.20
1704;DHT22;849;48.780;9.216;2023-02-28T16:12:00;7.80;61.80
1704;DHT22;849;48.780;9.216;2023-02-28T16:14:28;7.70;62.20
1704;DHT22;849;48.780;9.216;2023-02-28T16:17:06;7.70;61.60
1704;DHT22;849;48.780;9.216;2023-02-28T16:19:32;7.70;61.90
1704;DHT22;849;48.780;9.216;2023-02-28T16:21:58;7.50;62.00
1704;DHT22;849;48.780;9.216;2023-02-28T16:24:24;7.50;61.80
1704;DHT22;849;48.780;9.216;2023-02-28T16:26:52;7.50;62.40
1704;DHT22;849;48.780;9.216;2023-02-28T16:29:34;7.50;62.00
1704;DHT22;849;48.780;9.216;2023-02-28T16:32:00;7.40;61.90
1704;DHT22;849;48.780;9.216;2023-02-28T16:34:26;7.30;62.70
1704;DHT22;849;48.780;9.216;2023-02-28T16:36:52;7.20;63.10
1704;DHT22;849;48.780;9.216;2023-02-28T16:39:18;7.00;62.80
1704;DHT22;849;48.780;9.216;2023-02-28T16:41:47;7.00;63.00
1704;DHT22;849;48.780;9.216;2023-02-28T16:44:27;7.00;63.10
1704;DHT22;849;48.780;9.216;2023-02-28T16:46:53;7.00;62.80
1704;DHT22;849;48.780;9.216;2023-02-28T16:49:19;6.90;63.50
1704;DHT22;849;48.780;9.216;2023-02-28T16:51:44;7.00;63.50
1704;DHT22;849;48.780;9.216;2023-02-28T16:54:10;7.10;63.40
1704;DHT22;849;48.780;9.216;2023-02-28T16:56:44;7.10;64.20
1704;DHT22;849;48.780;9.216;2023-02-28T16:59:11;7.10;63.40
1704;DHT22;849;48.780;9.216;2023-02-28T17:01:37;7.00;63.50
1704;DHT22;849;48.780;9.216;2023-02-28T17:04:02;6.80;63.90
1704;DHT22;849;48.780;9.216;2023-02-28T17:06:29;6.80;63.70
1704;DHT22;849;48.780;9.216;2023-02-28T17:08:56;6.60;64.00
1704;DHT22;849;48.780;9.216;2023-02-28T17:11:24;6.50;64.30
1704;DHT22;849;48.780;9.216;2023-02-28T17:13:50;6.60;65.00
1704;DHT22;849;48.780;9.216;2023-02-28T17:16:30;6.60;64.70
1704;DHT22;849;48.780;9.216;2023-02-28T17:19:03;6.50;64.80
1704;DHT22;849;48.780;9.216;2023-02-28T17:21:29;6.50;65.00
1704;DHT22;849;48.780;9.216;2023-02-28T17:23:55;6.50;65.20
1704;DHT22;849;48.780;9.216;2023-02-28T17:26:21;6.50;65.30
1704;DHT22;849;48.780;9.216;2023-02-28T17:28:51;6.40;65.00
1704;DHT22;849;48.780;9.216;2023-02-28T17:31:17;6.30;65.30
1704;DHT22;849;48.780;9.216;2023-02-28T17:33:44;6.20;65.80
1704;DHT22;849;48.780;9.216;2023-02-28T17:36:14;6.30;65.60
1704;DHT22;849;48.780;9.216;2023-02-28T17:38:40;6.30;65.70
1704;DHT22;849;48.780;9.216;2023-02-28T17:41:07;6.20;67.00
1704;DHT22;849;48.780;9.216;2023-02-28T17:43:33;6.20;66.40
1704;DHT22;849;48.780;9.216;2023-02-28T17:45:59;6.20;66.50
1704;DHT22;849;48.780;9.216;2023-02-28T17:48:25;6.20;66.70
1704;DHT22;849;48.780;9.216;2023-02-28T17:50:50;6.30;66.40
1704;DHT22;849;48.780;9.216;2023-02-28T17:53:16;6.20;66.30
1704;DHT22;849;48.780;9.216;2023-02-28T17:55:42;6.20;66.70
1704;DHT22;849;48.780;9.216;2023-02-28T17:58:10;6.20;66.50
1704;DHT22;849;48.780;9.216;2023-02-28T18:00:37;6.40;66.40
1704;DHT22;849;48.780;9.216;2023-02-28T18:03:03;6.40;66.50
1704;DHT22;849;48.780;9.216;2023-02-28T18:05:29;6.30;66.50
1704;DHT22;849;48.780;9.216;2023-02-28T18:07:57;6.30;66.90
1704;DHT22;849;48.780;9.216;2023-02-28T18:10:22;6.20;66.70
1704;DHT22;849;48.780;9.216;2023-02-28T18:12:49;6.20;67.00
1704;DHT22;849;48.780;9.216;2023-02-28T18:15:17;6.20;67.40
1704;DHT22;849;48.780;9.216;2023-02-28T18:17:43;6.20;67.30
1704;DHT22;849;48.780;9.216;2023-02-28T18:20:10;6.10;67.40
1704;DHT22;849;48.780;9.216;2023-02-28T18:22:37;6.10;67.70
1704;DHT22;849;48.780;9.216;2023-02-28T18:25:04;6.10;68.70
1704;DHT22;849;48.780;9.216;2023-02-28T18:27:30;6.10;68.10
1704;DHT22;849;48.780;9.216;2023-02-28T18:29:56;5.90;68.00
1704;DHT22;849;48.780;9.216;2023-02-28T18:32:22;5.80;68.90
1704;DHT22;849;48.780;9.216;2023-02-28T18:34:47;5.80;69.10
1704;DHT22;849;48.780;9.216;2023-02-28T18:37:13;5.90;69.60
1704;DHT22;849;48.780;9.216;2023-02-28T18:39:40;5.70;69.50
1704;DHT22;849;48.780;9.216;2023-02-28T18:42:06;5.60;69.60
1704;DHT22;849;48.780;9.216;2023-02-28T18:44:33;5.60;70.00
1704;DHT22;849;48.780;9.216;2023-02-28T18:46:58;5.50;70.20
1704;DHT22;849;48.780;9.216;2023-02-28T18:49:24;5.50;70.60
1704;DHT22;849;48.780;9.216;2023-02-28T18:51:50;5.40;70.80
1704;DHT22;849;48.780;9.216;2023-02-28T18:54:16;5.30;71.80
1704;DHT22;849;48.780;9.216;2023-02-28T18:56:42;5.30;71.90
1704;DHT22;849;48.780;9.216;2023-02-28T18:59:07;5.20;72.10
1704;DHT22;849;48.780;9.216;2023-02-28T19:01:33;5.20;72.40
1704;DHT22;849;48.780;9.216;2023-02-28T19:04:00;5.20;72.60
1704;DHT22;849;48.780;9.216;2023-02-28T19:06:28;5.10;72.90
1704;DHT22;849;48.780;9.216;2023-02-28T19:08:59;5.10;72.80
1704;DHT22;849;48.780;9.216;2023-02-28T19:11:25;5.00;73.30
1704;DHT22;849;48.780;9.216;2023-02-28T19:13:51;5.00;73.50
1704;DHT22;849;48.780;9.216;2023-02-28T19:16:18;5.00;73.50
1704;DHT22;849;48.780;9.216;2023-02-28T19:18:44;5.00;73.30
1704;DHT22;849;48.780;9.216;2023-02-28T19:21:12;4.90;73.70
1704;DHT22;849;48.780;9.216;2023-02-28T19:23:39;4.80;73.70
1704;DHT22;849;48.780;9.216;2023-02-28T19:26:09;4.70;75.00
1704;DHT22;849;48.780;9.216;2023-02-28T19:28:36;4.70;74.60
1704;DHT22;849;48.780;9.216;2023-02-28T19:31:03;4.70;74.60
1704;DHT22;849;48.780;9.216;2023-02-28T19:33:28;4.80;74.60
1704;DHT22;849;48.780;9.216;2023-02-28T19:35:54;4.80;74.50
1704;DHT22;849;48.780;9.216;2023-02-28T19:38:23;4.80;74.20
1704;DHT22;849;48.780;9.216;2023-02-28T19:40:49;4.80;74.50
1704;DHT22;849;48.780;9.216;2023-02-28T19:43:14;4.80;74.90
1704;DHT22;849;48.780;9.216;2023-02-28T19:45:40;4.70;74.80
1704;DHT22;849;48.780;9.216;2023-02-28T19:48:05;4.70;75.10
1704;DHT22;849;48.780;9.216;2023-02-28T19:50:34;4.70;75.00
1704;DHT22;849;48.780;9.216;2023-02-28T19:53:01;4.60;75.30
1704;DHT22;849;48.780;9.216;2023-02-28T19:55:27;4.70;75.50
1704;DHT22;849;48.780;9.216;2023-02-28T19:57:53;4.60;75.80
1704;DHT22;849;48.780;9.216;2023-02-28T20:00:18;4.60;75.80
1704;DHT22;849;48.780;9.216;2023-02-28T20:02:44;4.50;75.80
1704;DHT22;849;48.780;9.216;2023-02-28T20:05:10;4.50;76.20
1704;DHT22;849;48.780;9.216;2023-02-28T20:07:35;4.60;76.50
1704;DHT22;849;48.780;9.216;2023-02-28T20:10:01;4.60;76.10
1704;DHT22;849;48.780;9.216;2023-02-28T20:12:26;4.50;76.40
1704;DHT22;849;48.780;9.216;2023-02-28T20:14:53;4.50;76.50
1704;DHT22;849;48.780;9.216;2023-02-28T20:17:23;4.50;76.60
1704;DHT22;849;48.780;9.216;2023-02-28T20:19:48;4.50;77.00
1704;DHT22;849;48.780;9.216;2023-02-28T20:22:14;4.40;76.60
1704;DHT22;849;48.780;9.216;2023-02-28T20:24:41;4.50;77.10
1704;DHT22;849;48.780;9.216;2023-02-28T20:27:07;4.40;76.80
1704;DHT22;849;48.780;9.216;2023-02-28T20:29:34;4.40;77.00
1704;DHT22;849;48.780;9.216;2023-02-28T20:31:59;4.40;77.00
1704;DHT22;849;48.780;9.216;2023-02-28T20:34:25;4.40;77.20
1704;DHT22;849;48.780;9.216;2023-02-28T20:36:51;4.10;78.00
1704;DHT22;849;48.780;9.216;2023-02-28T20:39:17;4.10;78.80
1704;DHT22;849;48.780;9.216;2023-02-28T20:41:43;4.10;78.80
1704;DHT22;849;48.780;9.216;2023-02-28T20:44:11;4.10;78.40
1704;DHT22;849;48.780;9.216;2023-02-28T20:46:37;4.10;78.60
1704;DHT22;849;48.780;9.216;2023-02-28T20:49:03;4.30;78.60